sensor_id;sensor_type;location;lat;lon;timestamp;P1;durP1;ratioP1;P2;durP2;ratioP2
59458;SDS011;45269;43.568;22.244;2023-02-22T00:02:24;191.18;;;122.97;;
59458;SDS011;45269;43.568;22.244;2023-02-22T00:04:51;126.63;;;81.07;;
59458;SDS011;45269;43.568;22.244;2023-02-22T00:07:17;116.05;;;76.22;;
59458;SDS011;45269;43.568;22.244;2023-02-22T00:09:45;134.73;;;89.95;;
59458;SDS011;45269;43.568;22.244;2023-02-22T00:12:10;187.52;;;116.75;;
59458;SDS011;45269;43.568;22.244;2023-02-22T00:14:36;159.90;;;99.93;;
59458;SDS011;45269;43.568;22.244;2023-02-22T00:17:01;141.55;;;92.00;;
59458;SDS011;45269;43.568;22.244;2023-02-22T00:19:26;131.60;;;81.95;;
59458;SDS011;45269;43.568;22.244;2023-02-22T00:21:54;116.90;;;76.60;;
59458;SDS011;45269;43.568;22.244;2023-02-22T00:24:22;135.13;;;86.85;;
59458;SDS011;45269;43.568;22.244;2023-02-22T00:26:51;116.78;;;70.68;;
59458;SDS011;45269;43.568;22.244;2023-02-22T00:29:19;107.05;;;67.30;;
59458;SDS011;45269;43.568;22.244;2023-02-22T00:31:44;124.70;;;80.32;;
59458;SDS011;45269;43.568;22.244;2023-02-22T00:34:10;163.90;;;105.05;;
59458;SDS011;45269;43.568;22.244;2023-02-22T00:36:35;70.55;;;43.10;;
59458;SDS011;45269;43.568;22.244;2023-02-22T00:39:00;54.35;;;35.65;;
59458;SDS011;45269;43.568;22.244;2023-02-22T00:41:26;99.38;;;62.88;;
59458;SDS011;45269;43.568;22.244;2023-02-22T00:43:51;124.40;;;81.70;;
59458;SDS011;45269;43.568;22.244;2023-02-22T00:46:16;121.57;;;85.78;;
59458;SDS011;45269;43.568;22.244;2023-02-22T00:48:41;124.40;;;85.28;;
59458;SDS011;45269;43.568;22.244;2023-02-22T00:51:07;89.82;;;62.20;;
59458;SDS011;45269;43.568;22.244;2023-02-22T00:53:32;76.72;;;52.08;;
59458;SDS011;45269;43.568;22.244;2023-02-22T00:55:58;85.90;;;55.85;;
59458;SDS011;45269;43.568;22.244;2023-02-22T00:58:23;126.43;;;89.93;;
59458;SDS011;45269;43.568;22.244;2023-02-22T01:00:48;132.23;;;90.38;;
59458;SDS011;45269;43.568;22.244;2023-02-22T01:03:15;127.78;;;88.63;;
59458;SDS011;45269;43.568;22.244;2023-02-22T01:05:40;123.70;;;80.22;;
59458;SDS011;45269;43.568;22.244;2023-02-22T01:08:07;126.35;;;81.40;;
59458;SDS011;45269;43.568;22.244;2023-02-22T01:10:32;128.57;;;86.18;;
59458;SDS011;45269;43.568;22.244;2023-02-22T01:12:58;130.88;;;84.22;;
59458;SDS011;45269;43.568;22.244;2023-02-22T01:15:25;143.52;;;87.95;;
59458;SDS011;45269;43.568;22.244;2023-02-22T01:17:53;95.97;;;60.50;;
59458;SDS011;45269;43.568;22.244;2023-02-22T01:20:19;90.55;;;60.08;;
59458;SDS011;45269;43.568;22.244;2023-02-22T01:22:47;97.40;;;67.00;;
59458;SDS011;45269;43.568;22.244;2023-02-22T01:25:15;62.10;;;44.30;;
59458;SDS011;45269;43.568;22.244;2023-02-22T01:27:41;63.95;;;44.08;;
59458;SDS011;45269;43.568;22.244;2023-02-22T01:30:06;70.05;;;49.22;;
59458;SDS011;45269;43.568;22.244;2023-02-22T01:32:35;81.00;;;56.33;;
59458;SDS011;45269;43.568;22.244;2023-02-22T01:35:01;93.65;;;66.32;;
59458;SDS011;45269;43.568;22.244;2023-02-22T01:37:29;63.75;;;46.35;;
59458;SDS011;45269;43.568;22.244;2023-02-22T01:39:54;93.28;;;60.70;;
59458;SDS011;45269;43.568;22.244;2023-02-22T01:42:20;111.18;;;76.60;;
59458;SDS011;45269;43.568;22.244;2023-02-22T01:44:45;98.30;;;64.28;;
59458;SDS011;45269;43.568;22.244;2023-02-22T01:47:10;27.35;;;20.25;;
59458;SDS011;45269;43.568;22.244;2023-02-22T01:49:43;72.53;;;45.35;;
59458;SDS011;45269;43.568;22.244;2023-02-22T01:52:13;103.72;;;60.38;;
59458;SDS011;45269;43.568;22.244;2023-02-22T01:54:41;127.75;;;77.60;;
59458;SDS011;45269;43.568;22.244;2023-02-22T01:59:40;90.47;;;57.13;;
59458;SDS011;45269;43.568;22.244;2023-02-22T02:02:06;112.72;;;71.68;;
59458;SDS011;45269;43.568;22.244;2023-02-22T02:04:32;214.20;;;126.97;;
59458;SDS011;45269;43.568;22.244;2023-02-22T02:06:59;102.25;;;63.50;;
59458;SDS011;45269;43.568;22.244;2023-02-22T02:09:26;89.40;;;58.28;;
59458;SDS011;45269;43.568;22.244;2023-02-22T02:11:54;76.65;;;51.05;;
59458;SDS011;45269;43.568;22.244;2023-02-22T02:14:21;98.82;;;67.32;;
59458;SDS011;45269;43.568;22.244;2023-02-22T02:16:47;59.72;;;38.72;;
59458;SDS011;45269;43.568;22.244;2023-02-22T02:19:27;59.72;;;41.95;;
59458;SDS011;45269;43.568;22.244;2023-02-22T02:22:00;71.65;;;50.03;;
59458;SDS011;45269;43.568;22.244;2023-02-22T02:24:49;73.60;;;49.65;;
59458;SDS011;45269;43.568;22.244;2023-02-22T02:37:23;81.05;;;55.15;;
59458;SDS011;45269;43.568;22.244;2023-02-22T02:39:57;58.42;;;39.03;;
59458;SDS011;45269;43.568;22.244;2023-02-22T02:42:24;58.50;;;40.75;;
59458;SDS011;45269;43.568;22.244;2023-02-22T02:44:54;67.43;;;45.63;;
59458;SDS011;45269;43.568;22.244;2023-02-22T02:47:25;77.80;;;52.55;;
59458;SDS011;45269;43.568;22.244;2023-02-22T02:49:56;62.45;;;44.22;;
59458;SDS011;45269;43.568;22.244;2023-02-22T02:52:22;58.83;;;41.83;;
59458;SDS011;45269;43.568;22.244;2023-02-22T02:54:49;61.22;;;44.63;;
59458;SDS011;45269;43.568;22.244;2023-02-22T02:57:15;51.58;;;35.70;;
59458;SDS011;45269;43.568;22.244;2023-02-22T02:59:40;88.82;;;56.25;;
59458;SDS011;45269;43.568;22.244;2023-02-22T03:07:37;83.03;;;54.30;;
59458;SDS011;45269;43.568;22.244;2023-02-22T03:17:57;67.88;;;41.85;;
59458;SDS011;45269;43.568;22.244;2023-02-22T03:25:41;54.72;;;35.28;;
59458;SDS011;45269;43.568;22.244;2023-02-22T03:28:09;62.88;;;38.55;;
59458;SDS011;45269;43.568;22.244;2023-02-22T03:33:03;58.17;;;34.85;;
59458;SDS011;45269;43.568;22.244;2023-02-22T03:35:33;53.78;;;32.90;;
59458;SDS011;45269;43.568;22.244;2023-02-22T03:38:01;72.13;;;44.35;;
59458;SDS011;45269;43.568;22.244;2023-02-22T03:40:30;69.60;;;43.28;;
59458;SDS011;45269;43.568;22.244;2023-02-22T03:42:59;45.05;;;30.33;;
59458;SDS011;45269;43.568;22.244;2023-02-22T03:45:26;154.85;;;95.72;;
59458;SDS011;45269;43.568;22.244;2023-02-22T03:47:56;92.50;;;54.22;;
59458;SDS011;45269;43.568;22.244;2023-02-22T03:50:24;76.78;;;46.42;;
59458;SDS011;45269;43.568;22.244;2023-02-22T03:52:53;58.60;;;37.15;;
59458;SDS011;45269;43.568;22.244;2023-02-22T03:55:19;62.92;;;35.63;;
59458;SDS011;45269;43.568;22.244;2023-02-22T03:57:52;31.23;;;20.23;;
59458;SDS011;45269;43.568;22.244;2023-02-22T04:00:20;22.27;;;15.25;;
59458;SDS011;45269;43.568;22.244;2023-02-22T04:02:46;44.50;;;28.52;;
59458;SDS011;45269;43.568;22.244;2023-02-22T04:05:12;42.63;;;24.75;;
59458;SDS011;45269;43.568;22.244;2023-02-22T04:07:38;62.65;;;39.75;;
59458;SDS011;45269;43.568;22.244;2023-02-22T04:10:03;84.68;;;59.67;;
59458;SDS011;45269;43.568;22.244;2023-02-22T04:12:32;91.07;;;65.38;;
59458;SDS011;45269;43.568;22.244;2023-02-22T04:14:58;113.13;;;81.80;;
59458;SDS011;45269;43.568;22.244;2023-02-22T04:17:23;108.38;;;79.30;;
59458;SDS011;45269;43.568;22.244;2023-02-22T04:19:48;104.53;;;77.40;;
59458;SDS011;45269;43.568;22.244;2023-02-22T04:22:13;97.85;;;69.65;;
59458;SDS011;45269;43.568;22.244;2023-02-22T04:24:39;54.35;;;37.30;;
59458;SDS011;45269;43.568;22.244;2023-02-22T04:27:04;49.20;;;32.78;;
59458;SDS011;45269;43.568;22.244;2023-02-22T04:29:29;62.35;;;37.55;;
59458;SDS011;45269;43.568;22.244;2023-02-22T04:31:55;113.78;;;64.82;;
59458;SDS011;45269;43.568;22.244;2023-02-22T04:34:20;104.28;;;66.45;;
59458;SDS011;45269;43.568;22.244;2023-02-22T04:36:45;66.72;;;42.10;;
59458;SDS011;45269;43.568;22.244;2023-02-22T04:39:11;61.88;;;38.90;;
59458;SDS011;45269;43.568;22.244;2023-02-22T04:41:36;75.15;;;49.78;;
59458;SDS011;45269;43.568;22.244;2023-02-22T04:44:01;73.50;;;48.38;;
59458;SDS011;45269;43.568;22.244;2023-02-22T04:46:27;67.38;;;47.05;;
59458;SDS011;45269;43.568;22.244;2023-02-22T04:48:52;75.15;;;51.45;;
59458;SDS011;45269;43.568;22.244;2023-02-22T04:51:18;113.90;;;77.75;;
59458;SDS011;45269;43.568;22.244;2023-02-22T04:53:44;111.80;;;78.32;;
59458;SDS011;45269;43.568;22.244;2023-02-22T04:56:09;83.32;;;60.08;;
59458;SDS011;45269;43.568;22.244;2023-02-22T04:58:34;111.75;;;77.15;;
59458;SDS011;45269;43.568;22.244;2023-02-22T05:01:00;65.85;;;44.35;;
59458;SDS011;45269;43.568;22.244;2023-02-22T05:03:25;63.80;;;43.95;;
59458;SDS011;45269;43.568;22.244;2023-02-22T05:05:51;67.18;;;46.33;;
59458;SDS011;45269;43.568;22.244;2023-02-22T05:08:16;67.70;;;45.33;;
59458;SDS011;45269;43.568;22.244;2023-02-22T05:10:41;76.20;;;53.70;;
59458;SDS011;45269;43.568;22.244;2023-02-22T05:13:07;70.20;;;50.75;;
59458;SDS011;45269;43.568;22.244;2023-02-22T05:15:33;71.20;;;47.90;;
59458;SDS011;45269;43.568;22.244;2023-02-22T05:17:58;68.55;;;49.00;;
59458;SDS011;45269;43.568;22.244;2023-02-22T05:20:27;73.15;;;50.00;;
59458;SDS011;45269;43.568;22.244;2023-02-22T05:22:56;80.07;;;52.77;;
59458;SDS011;45269;43.568;22.244;2023-02-22T05:25:22;61.33;;;43.42;;
59458;SDS011;45269;43.568;22.244;2023-02-22T05:27:51;132.93;;;112.45;;
59458;SDS011;45269;43.568;22.244;2023-02-22T05:30:17;122.75;;;99.57;;
59458;SDS011;45269;43.568;22.244;2023-02-22T05:32:42;89.85;;;72.20;;
59458;SDS011;45269;43.568;22.244;2023-02-22T05:35:07;67.93;;;50.35;;
59458;SDS011;45269;43.568;22.244;2023-02-22T05:37:33;102.88;;;79.63;;
59458;SDS011;45269;43.568;22.244;2023-02-22T05:39:58;101.00;;;76.63;;
59458;SDS011;45269;43.568;22.244;2023-02-22T05:42:23;117.45;;;86.80;;
59458;SDS011;45269;43.568;22.244;2023-02-22T05:44:48;111.13;;;80.38;;
59458;SDS011;45269;43.568;22.244;2023-02-22T05:47:14;104.72;;;77.22;;
59458;SDS011;45269;43.568;22.244;2023-02-22T05:49:39;97.30;;;71.20;;
59458;SDS011;45269;43.568;22.244;2023-02-22T05:52:04;83.97;;;58.80;;
59458;SDS011;45269;43.568;22.244;2023-02-22T05:54:30;89.28;;;65.95;;
59458;SDS011;45269;43.568;22.244;2023-02-22T05:56:55;69.57;;;52.10;;
59458;SDS011;45269;43.568;22.244;2023-02-22T05:59:20;71.35;;;49.92;;
59458;SDS011;45269;43.568;22.244;2023-02-22T06:01:45;97.07;;;72.65;;
59458;SDS011;45269;43.568;22.244;2023-02-22T06:04:11;39.42;;;30.63;;
59458;SDS011;45269;43.568;22.244;2023-02-22T06:06:36;37.50;;;28.67;;
59458;SDS011;45269;43.568;22.244;2023-02-22T06:09:01;49.55;;;36.45;;
59458;SDS011;45269;43.568;22.244;2023-02-22T06:11:26;69.45;;;49.45;;
59458;SDS011;45269;43.568;22.244;2023-02-22T06:13:52;83.90;;;60.88;;
59458;SDS011;45269;43.568;22.244;2023-02-22T06:16:18;89.75;;;66.32;;
59458;SDS011;45269;43.568;22.244;2023-02-22T06:18:45;145.88;;;102.88;;
59458;SDS011;45269;43.568;22.244;2023-02-22T06:21:10;125.13;;;92.60;;
59458;SDS011;45269;43.568;22.244;2023-02-22T06:23:35;146.35;;;110.18;;
59458;SDS011;45269;43.568;22.244;2023-02-22T06:26:01;124.07;;;93.10;;
59458;SDS011;45269;43.568;22.244;2023-02-22T06:28:26;211.30;;;150.98;;
59458;SDS011;45269;43.568;22.244;2023-02-22T06:30:51;335.88;;;243.93;;
59458;SDS011;45269;43.568;22.244;2023-02-22T06:33:16;356.92;;;266.85;;
59458;SDS011;45269;43.568;22.244;2023-02-22T06:35:42;217.27;;;155.98;;
59458;SDS011;45269;43.568;22.244;2023-02-22T06:38:07;231.75;;;166.73;;
59458;SDS011;45269;43.568;22.244;2023-02-22T06:40:32;194.63;;;137.27;;
59458;SDS011;45269;43.568;22.244;2023-02-22T06:42:58;115.68;;;80.65;;
59458;SDS011;45269;43.568;22.244;2023-02-22T06:45:23;207.02;;;157.27;;
59458;SDS011;45269;43.568;22.244;2023-02-22T06:47:49;230.23;;;166.15;;
59458;SDS011;45269;43.568;22.244;2023-02-22T06:50:24;161.20;;;118.57;;
59458;SDS011;45269;43.568;22.244;2023-02-22T06:52:50;323.55;;;256.88;;
59458;SDS011;45269;43.568;22.244;2023-02-22T06:55:23;264.98;;;185.98;;
59458;SDS011;45269;43.568;22.244;2023-02-22T06:57:49;245.70;;;180.63;;
59458;SDS011;45269;43.568;22.244;2023-02-22T07:00:15;218.63;;;165.15;;
59458;SDS011;45269;43.568;22.244;2023-02-22T07:02:41;250.77;;;189.05;;
59458;SDS011;45269;43.568;22.244;2023-02-22T07:05:06;289.50;;;215.63;;
59458;SDS011;45269;43.568;22.244;2023-02-22T07:07:31;196.82;;;144.40;;
59458;SDS011;45269;43.568;22.244;2023-02-22T07:09:57;227.20;;;159.65;;
59458;SDS011;45269;43.568;22.244;2023-02-22T07:12:22;142.77;;;101.20;;
59458;SDS011;45269;43.568;22.244;2023-02-22T07:14:48;149.35;;;106.65;;
59458;SDS011;45269;43.568;22.244;2023-02-22T07:17:13;151.20;;;107.20;;
59458;SDS011;45269;43.568;22.244;2023-02-22T07:19:38;145.43;;;103.93;;
59458;SDS011;45269;43.568;22.244;2023-02-22T07:22:04;146.20;;;109.88;;
59458;SDS011;45269;43.568;22.244;2023-02-22T07:24:30;154.20;;;108.35;;
59458;SDS011;45269;43.568;22.244;2023-02-22T07:26:55;107.82;;;76.82;;
59458;SDS011;45269;43.568;22.244;2023-02-22T07:29:21;145.38;;;105.60;;
59458;SDS011;45269;43.568;22.244;2023-02-22T07:31:46;128.48;;;88.40;;
59458;SDS011;45269;43.568;22.244;2023-02-22T07:34:11;115.20;;;81.28;;
59458;SDS011;45269;43.568;22.244;2023-02-22T07:36:38;108.63;;;73.25;;
59458;SDS011;45269;43.568;22.244;2023-02-22T07:39:03;63.00;;;47.70;;
59458;SDS011;45269;43.568;22.244;2023-02-22T07:41:32;80.80;;;59.13;;
59458;SDS011;45269;43.568;22.244;2023-02-22T07:43:58;106.28;;;80.80;;
59458;SDS011;45269;43.568;22.244;2023-02-22T07:46:23;93.32;;;71.30;;
59458;SDS011;45269;43.568;22.244;2023-02-22T07:48:48;90.88;;;70.20;;
59458;SDS011;45269;43.568;22.244;2023-02-22T07:51:15;212.93;;;149.20;;
59458;SDS011;45269;43.568;22.244;2023-02-22T07:53:40;66.05;;;48.53;;
59458;SDS011;45269;43.568;22.244;2023-02-22T07:56:05;47.63;;;39.33;;
59458;SDS011;45269;43.568;22.244;2023-02-22T07:58:33;45.42;;;37.42;;
59458;SDS011;45269;43.568;22.244;2023-02-22T08:00:59;33.70;;;26.00;;
59458;SDS011;45269;43.568;22.244;2023-02-22T08:03:29;39.85;;;29.67;;
59458;SDS011;45269;43.568;22.244;2023-02-22T08:05:55;55.80;;;41.83;;
59458;SDS011;45269;43.568;22.244;2023-02-22T08:08:21;53.00;;;38.45;;
59458;SDS011;45269;43.568;22.244;2023-02-22T08:10:47;50.45;;;36.22;;
59458;SDS011;45269;43.568;22.244;2023-02-22T08:13:12;46.85;;;35.03;;
59458;SDS011;45269;43.568;22.244;2023-02-22T08:15:39;39.65;;;28.67;;
59458;SDS011;45269;43.568;22.244;2023-02-22T08:18:06;23.88;;;19.60;;
59458;SDS011;45269;43.568;22.244;2023-02-22T08:20:33;19.13;;;15.05;;
59458;SDS011;45269;43.568;22.244;2023-02-22T08:22:59;19.05;;;14.68;;
59458;SDS011;45269;43.568;22.244;2023-02-22T08:25:25;18.13;;;13.68;;
59458;SDS011;45269;43.568;22.244;2023-02-22T08:27:51;15.77;;;12.75;;
59458;SDS011;45269;43.568;22.244;2023-02-22T08:30:18;17.13;;;12.73;;
59458;SDS011;45269;43.568;22.244;2023-02-22T08:32:46;19.20;;;15.57;;
59458;SDS011;45269;43.568;22.244;2023-02-22T08:35:12;35.65;;;27.05;;
59458;SDS011;45269;43.568;22.244;2023-02-22T08:37:40;31.08;;;25.63;;
59458;SDS011;45269;43.568;22.244;2023-02-22T08:40:06;21.30;;;14.38;;
59458;SDS011;45269;43.568;22.244;2023-02-22T08:42:31;16.67;;;13.82;;
59458;SDS011;45269;43.568;22.244;2023-02-22T08:44:56;17.77;;;13.60;;
59458;SDS011;45269;43.568;22.244;2023-02-22T08:47:22;17.65;;;14.45;;
59458;SDS011;45269;43.568;22.244;2023-02-22T08:49:47;24.80;;;17.17;;
59458;SDS011;45269;43.568;22.244;2023-02-22T08:52:12;16.08;;;14.38;;
59458;SDS011;45269;43.568;22.244;2023-02-22T08:54:38;21.67;;;14.80;;
59458;SDS011;45269;43.568;22.244;2023-02-22T08:57:03;16.00;;;13.25;;
59458;SDS011;45269;43.568;22.244;2023-02-22T08:59:28;11.40;;;9.10;;
59458;SDS011;45269;43.568;22.244;2023-02-22T09:01:54;11.73;;;10.52;;
59458;SDS011;45269;43.568;22.244;2023-02-22T09:04:19;12.00;;;9.43;;
59458;SDS011;45269;43.568;22.244;2023-02-22T09:06:44;13.60;;;12.07;;
59458;SDS011;45269;43.568;22.244;2023-02-22T09:09:15;14.18;;;12.68;;
59458;SDS011;45269;43.568;22.244;2023-02-22T09:11:43;13.93;;;11.80;;
59458;SDS011;45269;43.568;22.244;2023-02-22T09:14:08;12.45;;;11.13;;
59458;SDS011;45269;43.568;22.244;2023-02-22T09:16:33;13.90;;;12.40;;
59458;SDS011;45269;43.568;22.244;2023-02-22T09:19:02;10.95;;;9.38;;
59458;SDS011;45269;43.568;22.244;2023-02-22T09:21:27;11.77;;;8.52;;
59458;SDS011;45269;43.568;22.244;2023-02-22T09:23:53;10.40;;;9.07;;
59458;SDS011;45269;43.568;22.244;2023-02-22T09:26:18;9.02;;;7.55;;
59458;SDS011;45269;43.568;22.244;2023-02-22T09:28:44;7.57;;;6.80;;
59458;SDS011;45269;43.568;22.244;2023-02-22T09:31:09;7.35;;;6.25;;
59458;SDS011;45269;43.568;22.244;2023-02-22T09:33:34;8.65;;;7.05;;
59458;SDS011;45269;43.568;22.244;2023-02-22T09:36:00;8.45;;;7.60;;
59458;SDS011;45269;43.568;22.244;2023-02-22T09:38:26;6.38;;;5.75;;
59458;SDS011;45269;43.568;22.244;2023-02-22T09:40:57;7.00;;;6.03;;
59458;SDS011;45269;43.568;22.244;2023-02-22T09:51:32;7.88;;;6.43;;
59458;SDS011;45269;43.568;22.244;2023-02-22T09:53:59;5.63;;;4.40;;
59458;SDS011;45269;43.568;22.244;2023-02-22T09:56:26;5.78;;;5.20;;
59458;SDS011;45269;43.568;22.244;2023-02-22T09:58:55;6.15;;;5.55;;
59458;SDS011;45269;43.568;22.244;2023-02-22T10:01:37;9.75;;;7.03;;
59458;SDS011;45269;43.568;22.244;2023-02-22T10:04:14;6.32;;;5.38;;
59458;SDS011;45269;43.568;22.244;2023-02-22T10:09:09;10.55;;;8.18;;
59458;SDS011;45269;43.568;22.244;2023-02-22T10:11:39;7.03;;;5.60;;
59458;SDS011;45269;43.568;22.244;2023-02-22T10:22:15;10.70;;;9.07;;
59458;SDS011;45269;43.568;22.244;2023-02-22T10:30:21;6.65;;;6.05;;
59458;SDS011;45269;43.568;22.244;2023-02-22T10:35:32;7.07;;;6.38;;
59458;SDS011;45269;43.568;22.244;2023-02-22T10:38:01;9.40;;;8.00;;
59458;SDS011;45269;43.568;22.244;2023-02-22T10:40:29;6.55;;;5.68;;
59458;SDS011;45269;43.568;22.244;2023-02-22T10:42:59;8.30;;;6.72;;
59458;SDS011;45269;43.568;22.244;2023-02-22T10:45:26;11.07;;;6.18;;
59458;SDS011;45269;43.568;22.244;2023-02-22T10:47:53;8.13;;;7.28;;
59458;SDS011;45269;43.568;22.244;2023-02-22T10:50:19;10.27;;;8.60;;
59458;SDS011;45269;43.568;22.244;2023-02-22T10:52:45;8.13;;;6.32;;
59458;SDS011;45269;43.568;22.244;2023-02-22T10:55:14;8.13;;;6.90;;
59458;SDS011;45269;43.568;22.244;2023-02-22T10:57:40;8.55;;;6.63;;
59458;SDS011;45269;43.568;22.244;2023-02-22T11:00:17;9.60;;;7.75;;
59458;SDS011;45269;43.568;22.244;2023-02-22T11:02:53;11.77;;;10.30;;
59458;SDS011;45269;43.568;22.244;2023-02-22T11:05:30;11.80;;;9.98;;
59458;SDS011;45269;43.568;22.244;2023-02-22T11:10:40;9.95;;;6.95;;
59458;SDS011;45269;43.568;22.244;2023-02-22T11:13:23;9.50;;;6.90;;
59458;SDS011;45269;43.568;22.244;2023-02-22T11:15:52;9.45;;;8.05;;
59458;SDS011;45269;43.568;22.244;2023-02-22T11:18:22;8.93;;;7.45;;
59458;SDS011;45269;43.568;22.244;2023-02-22T11:20:48;8.40;;;7.28;;
59458;SDS011;45269;43.568;22.244;2023-02-22T11:23:13;6.20;;;5.60;;
59458;SDS011;45269;43.568;22.244;2023-02-22T11:25:44;12.05;;;9.10;;
59458;SDS011;45269;43.568;22.244;2023-02-22T11:30:39;7.43;;;6.73;;
59458;SDS011;45269;43.568;22.244;2023-02-22T11:33:10;10.80;;;8.40;;
59458;SDS011;45269;43.568;22.244;2023-02-22T11:38:39;8.85;;;7.60;;
59458;SDS011;45269;43.568;22.244;2023-02-22T11:41:20;8.87;;;6.97;;
59458;SDS011;45269;43.568;22.244;2023-02-22T11:43:50;14.00;;;10.88;;
59458;SDS011;45269;43.568;22.244;2023-02-22T11:46:22;10.13;;;8.75;;
59458;SDS011;45269;43.568;22.244;2023-02-22T11:49:23;9.85;;;8.45;;
59458;SDS011;45269;43.568;22.244;2023-02-22T11:56:47;8.82;;;7.93;;
59458;SDS011;45269;43.568;22.244;2023-02-22T12:17:07;7.05;;;6.18;;
59458;SDS011;45269;43.568;22.244;2023-02-22T12:22:04;8.35;;;6.53;;
59458;SDS011;45269;43.568;22.244;2023-02-22T12:27:49;8.68;;;7.60;;
59458;SDS011;45269;43.568;22.244;2023-02-22T12:30:11;6.03;;;5.53;;
59458;SDS011;45269;43.568;22.244;2023-02-22T12:32:39;8.15;;;7.10;;
59458;SDS011;45269;43.568;22.244;2023-02-22T12:35:11;5.80;;;5.30;;
59458;SDS011;45269;43.568;22.244;2023-02-22T12:40:09;6.18;;;5.57;;
59458;SDS011;45269;43.568;22.244;2023-02-22T12:48:14;12.13;;;9.68;;
59458;SDS011;45269;43.568;22.244;2023-02-22T12:50:43;12.73;;;8.30;;
59458;SDS011;45269;43.568;22.244;2023-02-22T12:53:16;7.75;;;5.82;;
59458;SDS011;45269;43.568;22.244;2023-02-22T12:55:49;7.32;;;6.55;;
59458;SDS011;45269;43.568;22.244;2023-02-22T12:58:23;9.00;;;7.82;;
59458;SDS011;45269;43.568;22.244;2023-02-22T13:01:10;8.20;;;6.72;;
59458;SDS011;45269;43.568;22.244;2023-02-22T13:03:41;9.10;;;7.95;;
59458;SDS011;45269;43.568;22.244;2023-02-22T13:13:49;12.70;;;10.47;;
59458;SDS011;45269;43.568;22.244;2023-02-22T13:22:28;11.32;;;8.95;;
59458;SDS011;45269;43.568;22.244;2023-02-22T13:24:25;6.53;;;5.93;;
59458;SDS011;45269;43.568;22.244;2023-02-22T13:27:03;8.75;;;7.78;;
59458;SDS011;45269;43.568;22.244;2023-02-22T13:30:03;7.72;;;6.00;;
59458;SDS011;45269;43.568;22.244;2023-02-22T13:48:07;7.38;;;6.15;;
59458;SDS011;45269;43.568;22.244;2023-02-22T13:53:22;9.43;;;7.95;;
59458;SDS011;45269;43.568;22.244;2023-02-22T13:55:51;9.32;;;7.38;;
59458;SDS011;45269;43.568;22.244;2023-02-22T13:58:17;10.93;;;7.70;;
59458;SDS011;45269;43.568;22.244;2023-02-22T14:00:50;9.68;;;8.70;;
59458;SDS011;45269;43.568;22.244;2023-02-22T14:03:30;7.68;;;6.80;;
59458;SDS011;45269;43.568;22.244;2023-02-22T14:06:00;9.52;;;7.13;;
59458;SDS011;45269;43.568;22.244;2023-02-22T14:11:01;8.75;;;7.10;;
59458;SDS011;45269;43.568;22.244;2023-02-22T14:13:30;7.43;;;6.60;;
59458;SDS011;45269;43.568;22.244;2023-02-22T14:18:49;9.05;;;6.20;;
59458;SDS011;45269;43.568;22.244;2023-02-22T14:21:20;7.35;;;5.65;;
59458;SDS011;45269;43.568;22.244;2023-02-22T14:23:47;5.60;;;5.07;;
59458;SDS011;45269;43.568;22.244;2023-02-22T14:31:10;6.70;;;4.75;;
59458;SDS011;45269;43.568;22.244;2023-02-22T14:33:50;14.40;;;11.68;;
59458;SDS011;45269;43.568;22.244;2023-02-22T14:36:17;8.02;;;6.22;;
59458;SDS011;45269;43.568;22.244;2023-02-22T14:38:43;7.05;;;6.28;;
59458;SDS011;45269;43.568;22.244;2023-02-22T14:41:10;8.73;;;5.50;;
59458;SDS011;45269;43.568;22.244;2023-02-22T14:43:35;8.07;;;6.50;;
59458;SDS011;45269;43.568;22.244;2023-02-22T14:46:01;6.10;;;5.50;;
59458;SDS011;45269;43.568;22.244;2023-02-22T14:48:36;6.47;;;5.70;;
59458;SDS011;45269;43.568;22.244;2023-02-22T14:56:22;9.02;;;6.80;;
59458;SDS011;45269;43.568;22.244;2023-02-22T15:03:54;7.88;;;6.90;;
59458;SDS011;45269;43.568;22.244;2023-02-22T15:06:23;7.20;;;6.50;;
59458;SDS011;45269;43.568;22.244;2023-02-22T15:09:04;10.70;;;8.15;;
59458;SDS011;45269;43.568;22.244;2023-02-22T15:11:29;11.88;;;10.63;;
59458;SDS011;45269;43.568;22.244;2023-02-22T15:13:56;19.92;;;14.98;;
59458;SDS011;45269;43.568;22.244;2023-02-22T15:16:22;14.70;;;11.90;;
59458;SDS011;45269;43.568;22.244;2023-02-22T15:18:50;12.30;;;9.23;;
59458;SDS011;45269;43.568;22.244;2023-02-22T15:21:18;10.63;;;8.88;;
59458;SDS011;45269;43.568;22.244;2023-02-22T15:23:45;9.95;;;8.43;;
59458;SDS011;45269;43.568;22.244;2023-02-22T15:28:47;13.80;;;12.10;;
59458;SDS011;45269;43.568;22.244;2023-02-22T15:31:13;44.17;;;31.33;;
59458;SDS011;45269;43.568;22.244;2023-02-22T15:33:38;24.60;;;19.33;;
59458;SDS011;45269;43.568;22.244;2023-02-22T15:36:04;17.38;;;14.73;;
59458;SDS011;45269;43.568;22.244;2023-02-22T15:38:29;12.18;;;10.93;;
59458;SDS011;45269;43.568;22.244;2023-02-22T15:41:01;12.43;;;10.43;;
59458;SDS011;45269;43.568;22.244;2023-02-22T15:43:27;11.73;;;10.52;;
59458;SDS011;45269;43.568;22.244;2023-02-22T15:45:52;12.35;;;10.70;;
59458;SDS011;45269;43.568;22.244;2023-02-22T15:48:18;12.38;;;11.02;;
59458;SDS011;45269;43.568;22.244;2023-02-22T15:53:27;19.65;;;16.17;;
59458;SDS011;45269;43.568;22.244;2023-02-22T15:55:55;22.42;;;16.10;;
59458;SDS011;45269;43.568;22.244;2023-02-22T15:58:22;18.05;;;14.52;;
59458;SDS011;45269;43.568;22.244;2023-02-22T16:01:10;31.95;;;24.73;;
59458;SDS011;45269;43.568;22.244;2023-02-22T16:03:42;27.10;;;21.42;;
59458;SDS011;45269;43.568;22.244;2023-02-22T16:06:29;25.23;;;20.17;;
59458;SDS011;45269;43.568;22.244;2023-02-22T16:08:57;19.20;;;16.85;;
59458;SDS011;45269;43.568;22.244;2023-02-22T16:11:23;18.60;;;15.95;;
59458;SDS011;45269;43.568;22.244;2023-02-22T16:14:00;32.33;;;25.23;;
59458;SDS011;45269;43.568;22.244;2023-02-22T16:16:27;58.35;;;44.90;;
59458;SDS011;45269;43.568;22.244;2023-02-22T16:18:53;72.47;;;52.15;;
59458;SDS011;45269;43.568;22.244;2023-02-22T16:21:59;81.72;;;59.28;;
59458;SDS011;45269;43.568;22.244;2023-02-22T16:24:31;65.68;;;45.05;;
59458;SDS011;45269;43.568;22.244;2023-02-22T16:29:37;28.92;;;21.95;;
59458;SDS011;45269;43.568;22.244;2023-02-22T16:32:02;15.70;;;11.38;;
59458;SDS011;45269;43.568;22.244;2023-02-22T16:34:28;19.50;;;16.20;;
59458;SDS011;45269;43.568;22.244;2023-02-22T16:36:53;14.65;;;12.30;;
59458;SDS011;45269;43.568;22.244;2023-02-22T16:39:23;10.77;;;9.65;;
59458;SDS011;45269;43.568;22.244;2023-02-22T16:41:51;10.95;;;9.82;;
59458;SDS011;45269;43.568;22.244;2023-02-22T16:44:17;14.80;;;12.02;;
59458;SDS011;45269;43.568;22.244;2023-02-22T16:46:42;16.85;;;14.90;;
59458;SDS011;45269;43.568;22.244;2023-02-22T16:49:11;10.75;;;9.65;;
59458;SDS011;45269;43.568;22.244;2023-02-22T16:51:44;14.98;;;12.73;;
59458;SDS011;45269;43.568;22.244;2023-02-22T16:54:12;9.90;;;8.63;;
59458;SDS011;45269;43.568;22.244;2023-02-22T16:56:38;12.20;;;9.88;;
59458;SDS011;45269;43.568;22.244;2023-02-22T16:59:06;12.13;;;10.77;;
59458;SDS011;45269;43.568;22.244;2023-02-22T17:01:32;76.30;;;60.85;;